Time;durP1;ratioP1;P1;durP2;ratioP2;P2;SDS_P1;SDS_P2;PMS_P1;PMS_P2;Temp;Humidity;BMP_temperature;BMP_pressure;BME280_temperature;BME280_humidity;BME280_pressure;Samples;Min_cycle;Max_cycle;Signal;HPM_P1;HPM_P2
2021/11/27 00:01:27;;;;;;;18.00;12.03;;;3.10;99.90;;;;;;5029432;28;20286;-68
2021/11/27 00:03:54;;;;;;;17.77;11.10;;;3.10;99.90;;;;;;5027048;28;20233;-66
2021/11/27 00:06:24;;;;;;;16.20;10.67;;;3.10;99.90;;;;;;5025554;28;20661;-66
2021/11/27 00:08:51;;;;;;;18.73;11.40;;;3.10;99.90;;;;;;5017585;28;20306;-67
2021/11/27 00:11:19;;;;;;;16.13;10.73;;;3.10;99.90;;;;;;5017600;28;20239;-66
2021/11/27 00:13:46;;;;;;;15.10;10.43;;;3.00;99.90;;;;;;5026019;28;20266;-66
2021/11/27 00:16:15;;;;;;;15.80;11.00;;;3.00;99.90;;;;;;5023679;28;20644;-67
2021/11/27 00:18:42;;;;;;;17.37;11.40;;;3.00;99.90;;;;;;5028591;28;20652;-68
2021/11/27 00:21:12;;;;;;;15.83;10.73;;;3.00;99.90;;;;;;5024900;28;20633;-66
2021/11/27 00:23:43;;;;;;;15.63;10.40;;;2.90;99.90;;;;;;5014232;28;20285;-66
2021/11/27 00:26:13;;;;;;;14.90;9.77;;;2.90;99.90;;;;;;5019503;28;20245;-68
2021/11/27 00:28:40;;;;;;;16.47;10.67;;;2.90;99.90;;;;;;5026687;28;20682;-66
2021/11/27 00:31:12;;;;;;;12.87;9.50;;;2.90;99.90;;;;;;5014668;28;20803;-67
2021/11/27 00:33:40;;;;;;;13.67;10.07;;;2.90;99.90;;;;;;5022650;28;20318;-66
2021/11/27 00:36:07;;;;;;;14.57;9.67;;;2.90;99.90;;;;;;5014459;28;20226;-67
2021/11/27 00:38:35;;;;;;;14.57;10.30;;;2.90;99.90;;;;;;5012999;28;20728;-67
2021/11/27 00:41:04;;;;;;;15.90;10.33;;;2.90;99.90;;;;;;5028599;28;20198;-67
2021/11/27 00:43:32;;;;;;;14.13;9.40;;;2.90;99.90;;;;;;5032245;28;20662;-67
2021/11/27 00:45:59;;;;;;;16.03;9.80;;;2.90;99.90;;;;;;5019005;28;20297;-65
2021/11/27 00:48:26;;;;;;;16.77;9.67;;;2.90;99.90;;;;;;5024189;28;20230;-66
2021/11/27 00:50:57;;;;;;;14.47;9.37;;;2.90;99.90;;;;;;5020309;28;20298;-67
2021/11/27 00:53:24;;;;;;;14.20;9.23;;;2.90;99.90;;;;;;5015330;28;20294;-66
2021/11/27 00:55:51;;;;;;;14.27;9.00;;;2.90;99.90;;;;;;5024900;28;20300;-67
2021/11/27 00:58:20;;;;;;;14.07;8.83;;;2.90;99.90;;;;;;5027221;28;20736;-66
2021/11/27 01:00:50;;;;;;;13.50;8.37;;;2.90;99.90;;;;;;5028880;28;20289;-68
2021/11/27 01:03:19;;;;;;;11.93;8.47;;;2.90;99.90;;;;;;5032326;28;20320;-66
2021/11/27 01:05:47;;;;;;;12.37;8.60;;;2.90;99.90;;;;;;5031166;28;20682;-66
2021/11/27 01:08:15;;;;;;;10.33;8.10;;;2.90;99.90;;;;;;5032292;28;20293;-67
2021/11/27 01:10:47;;;;;;;13.03;8.53;;;2.90;99.90;;;;;;5020213;28;20203;-66
2021/11/27 01:13:15;;;;;;;12.70;7.87;;;2.90;99.90;;;;;;5025669;28;20733;-67
2021/11/27 01:15:44;;;;;;;12.50;7.97;;;2.90;99.90;;;;;;5024812;28;20242;-66
2021/11/27 01:18:12;;;;;;;12.00;8.57;;;2.90;99.90;;;;;;5022992;28;20274;-66
2021/11/27 01:20:44;;;;;;;11.60;8.27;;;3.00;99.90;;;;;;5018446;28;20294;-65
2021/11/27 01:23:11;;;;;;;10.93;7.93;;;2.90;99.90;;;;;;5019340;28;20307;-64
2021/11/27 01:25:39;;;;;;;12.20;8.40;;;2.90;99.90;;;;;;5025541;28;20242;-64
2021/11/27 01:28:07;;;;;;;13.30;8.10;;;3.00;99.90;;;;;;5016443;28;20212;-64
2021/11/27 01:30:34;;;;;;;11.27;7.77;;;2.90;99.90;;;;;;5011550;28;20266;-66
2021/11/27 01:33:03;;;;;;;10.97;7.63;;;3.00;99.90;;;;;;5018526;28;20203;-64
2021/11/27 01:35:30;;;;;;;10.77;7.77;;;2.90;99.90;;;;;;5017506;28;20298;-66
2021/11/27 01:37:57;;;;;;;11.43;8.07;;;2.90;99.90;;;;;;5011150;28;20319;-66
2021/11/27 01:40:27;;;;;;;12.03;7.87;;;2.90;99.90;;;;;;5024083;28;20689;-66
2021/11/27 01:42:54;;;;;;;10.67;7.50;;;2.90;99.90;;;;;;5027697;28;20313;-67
2021/11/27 01:45:23;;;;;;;8.73;7.03;;;2.90;99.90;;;;;;5022030;28;20770;-64
2021/11/27 01:47:54;;;;;;;10.97;7.50;;;3.00;99.90;;;;;;5016934;28;20203;-67
2021/11/27 01:50:24;;;;;;;9.37;6.37;;;3.00;99.90;;;;;;5023264;28;20632;-65
2021/11/27 01:52:51;;;;;;;9.23;6.93;;;3.00;99.90;;;;;;5018246;28;20297;-65
2021/11/27 01:55:19;;;;;;;10.30;7.10;;;3.00;99.90;;;;;;5025158;28;20245;-66
2021/11/27 01:57:46;;;;;;;9.73;6.40;;;3.00;99.90;;;;;;5020750;28;20768;-65
2021/11/27 02:00:17;;;;;;;11.30;6.67;;;3.00;99.90;;;;;;5021897;28;20262;-65
2021/11/27 02:02:44;;;;;;;8.60;6.37;;;3.00;99.90;;;;;;5020975;28;20259;-67
2021/11/27 02:05:13;;;;;;;8.40;5.90;;;3.00;99.90;;;;;;5013289;28;20242;-66
2021/11/27 02:07:41;;;;;;;9.40;6.70;;;3.00;99.90;;;;;;5022197;28;20581;-66
2021/11/27 02:10:11;;;;;;;8.87;6.40;;;3.00;99.90;;;;;;5020726;28;20317;-65
2021/11/27 02:12:39;;;;;;;9.23;6.47;;;3.00;99.90;;;;;;5029426;28;20210;-65
2021/11/27 02:15:06;;;;;;;7.67;5.73;;;3.00;99.90;;;;;;5028910;28;20266;-66
2021/11/27 02:17:34;;;;;;;10.67;6.17;;;3.00;99.90;;;;;;5016141;28;20318;-66
2021/11/27 02:20:01;;;;;;;8.67;6.73;;;3.10;99.90;;;;;;5021237;28;20392;-65
2021/11/27 02:22:33;;;;;;;10.20;6.10;;;3.10;99.90;;;;;;5025228;28;20210;-67
2021/11/27 02:25:01;;;;;;;8.90;6.47;;;3.10;99.90;;;;;;5010976;28;20215;-66
2021/11/27 02:27:28;;;;;;;8.90;5.70;;;3.10;99.90;;;;;;5022497;28;20634;-65
2021/11/27 02:29:55;;;;;;;7.63;5.90;;;3.10;99.90;;;;;;5012057;28;20297;-66
2021/11/27 02:32:23;;;;;;;7.77;5.27;;;3.10;99.90;;;;;;5024589;28;20260;-67
2021/11/27 02:34:50;;;;;;;8.60;6.00;;;3.10;99.90;;;;;;5011099;28;20277;-66
2021/11/27 02:37:17;;;;;;;7.93;6.00;;;3.20;99.90;;;;;;5011039;28;20238;-66
2021/11/27 02:39:45;;;;;;;7.17;5.47;;;3.10;99.90;;;;;;5030359;28;20297;-65
2021/11/27 02:42:12;;;;;;;8.90;5.60;;;3.30;99.90;;;;;;5023905;28;20840;-65
2021/11/27 02:44:40;;;;;;;6.73;5.43;;;3.30;99.90;;;;;;5017411;28;20715;-67
2021/11/27 02:47:08;;;;;;;8.17;5.43;;;3.20;99.90;;;;;;5030015;28;20241;-66
2021/11/27 02:49:36;;;;;;;6.83;5.30;;;3.20;99.90;;;;;;5012511;28;20239;-66
2021/11/27 02:52:03;;;;;;;6.27;4.90;;;3.20;99.90;;;;;;5017563;28;20293;-68
2021/11/27 02:54:30;;;;;;;6.90;5.30;;;3.10;99.90;;;;;;5022995;28;20593;-66
2021/11/27 02:56:58;;;;;;;6.87;4.97;;;3.10;99.90;;;;;;5026329;28;20230;-66
2021/11/27 02:59:28;;;;;;;6.43;4.80;;;3.20;99.90;;;;;;5015798;28;20286;-66
2021/11/27 03:01:57;;;;;;;6.77;4.73;;;3.10;99.90;;;;;;5027401;28;20206;-66
2021/11/27 03:04:25;;;;;;;6.10;4.60;;;3.20;99.90;;;;;;5028271;28;20280;-65
2021/11/27 03:06:53;;;;;;;6.23;5.10;;;3.30;99.90;;;;;;5018319;28;20293;-66
2021/11/27 03:09:21;;;;;;;6.27;5.10;;;3.30;99.90;;;;;;5018340;28;20238;-66
2021/11/27 03:11:50;;;;;;;7.17;4.97;;;3.30;99.90;;;;;;5030470;28;20696;-66
2021/11/27 03:14:20;;;;;;;6.23;4.90;;;3.30;99.90;;;;;;5022258;28;20681;-67
2021/11/27 03:16:47;;;;;;;10.63;5.63;;;3.40;99.90;;;;;;5010580;28;20302;-68
2021/11/27 03:19:15;;;;;;;6.47;5.07;;;3.40;99.90;;;;;;5029181;28;20235;-66
2021/11/27 03:21:42;;;;;;;7.20;5.37;;;3.40;99.90;;;;;;5017900;28;20293;-66
2021/11/27 03:24:09;;;;;;;5.90;4.80;;;3.40;99.90;;;;;;5010992;28;20302;-66
2021/11/27 03:26:36;;;;;;;6.77;5.33;;;3.40;99.90;;;;;;5017964;28;20258;-66
2021/11/27 03:29:04;;;;;;;5.77;4.70;;;3.40;99.90;;;;;;5011797;28;20298;-66
2021/11/27 03:31:33;;;;;;;6.20;4.50;;;3.40;99.90;;;;;;5029753;28;20561;-66
2021/11/27 03:34:00;;;;;;;6.90;4.80;;;3.40;99.90;;;;;;5018532;28;20664;-66
2021/11/27 03:36:27;;;;;;;5.73;4.50;;;3.40;99.90;;;;;;5026628;28;20254;-66
2021/11/27 03:38:54;;;;;;;6.97;4.40;;;3.40;99.90;;;;;;5018211;28;20290;-66
2021/11/27 03:41:21;;;;;;;5.20;4.50;;;3.40;99.90;;;;;;5014031;28;20245;-66
2021/11/27 03:43:48;;;;;;;5.40;4.30;;;3.40;99.90;;;;;;5012702;28;20330;-65
2021/11/27 03:46:16;;;;;;;4.53;3.97;;;3.60;99.90;;;;;;5031608;28;20245;-65
2021/11/27 03:48:46;;;;;;;6.47;4.90;;;3.50;99.90;;;;;;5032366;28;20305;-66
2021/11/27 03:51:18;;;;;;;7.03;4.33;;;3.50;99.90;;;;;;5027980;28;20242;-66
2021/11/27 03:53:47;;;;;;;6.40;5.10;;;3.50;99.90;;;;;;5015900;28;20291;-65
2021/11/27 03:56:16;;;;;;;5.20;3.97;;;3.50;99.90;;;;;;5033606;28;20234;-67
2021/11/27 03:58:43;;;;;;;5.37;4.57;;;3.50;99.90;;;;;;5019618;28;20237;-65
2021/11/27 04:01:12;;;;;;;6.10;4.90;;;3.50;99.90;;;;;;5033310;28;20221;-66
2021/11/27 04:03:42;;;;;;;5.47;4.40;;;3.40;99.90;;;;;;5018030;28;20254;-66
2021/11/27 04:06:10;;;;;;;4.80;4.07;;;3.40;99.90;;;;;;5021701;28;20290;-66
2021/11/27 04:08:38;;;;;;;6.17;4.37;;;3.30;99.90;;;;;;5027778;28;20608;-66
2021/11/27 04:11:06;;;;;;;7.47;4.83;;;3.30;99.90;;;;;;5023084;28;20636;-66
2021/11/27 04:13:33;;;;;;;5.83;4.80;;;3.30;99.90;;;;;;5019081;28;20648;-66
2021/11/27 04:16:00;;;;;;;6.27;4.73;;;3.30;99.90;;;;;;5025815;28;20669;-65
2021/11/27 04:18:27;;;;;;;7.53;4.50;;;3.20;99.90;;;;;;5025150;28;20649;-66
2021/11/27 04:20:54;;;;;;;5.47;4.77;;;3.20;99.90;;;;;;5031816;28;20297;-66
2021/11/27 04:23:24;;;;;;;8.43;5.00;;;3.30;99.90;;;;;;5022419;28;20569;-65
2021/11/27 04:25:51;;;;;;;7.00;5.07;;;3.20;99.90;;;;;;5016365;28;20306;-66
2021/11/27 04:28:19;;;;;;;8.53;5.77;;;3.20;99.90;;;;;;5021498;28;20294;-65
2021/11/27 04:30:46;;;;;;;9.23;6.20;;;3.20;99.90;;;;;;5028520;28;20306;-65
2021/11/27 04:33:13;;;;;;;7.50;6.00;;;3.10;99.90;;;;;;5024329;28;20732;-66
2021/11/27 04:35:41;;;;;;;7.87;6.03;;;3.10;99.90;;;;;;5012334;28;20303;-67
2021/11/27 04:38:08;;;;;;;8.60;6.17;;;3.10;99.90;;;;;;5019930;28;20683;-65
2021/11/27 04:40:36;;;;;;;9.67;6.40;;;3.00;99.90;;;;;;5013460;28;20342;-66
2021/11/27 04:43:04;;;;;;;9.57;7.03;;;3.00;99.90;;;;;;5018117;28;20221;-65
2021/11/27 04:45:33;;;;;;;10.87;7.57;;;3.00;99.90;;;;;;5024033;28;20226;-65
2021/11/27 04:48:00;;;;;;;10.27;7.07;;;2.80;99.90;;;;;;5027823;28;20204;-65
2021/11/27 04:50:28;;;;;;;9.97;6.67;;;2.90;99.90;;;;;;5017926;28;20231;-67
2021/11/27 04:52:55;;;;;;;9.60;7.07;;;2.80;99.90;;;;;;5012659;28;20619;-67
2021/11/27 04:55:22;;;;;;;9.63;6.60;;;2.80;99.90;;;;;;5026394;28;20283;-67
2021/11/27 04:57:50;;;;;;;9.20;6.77;;;2.90;99.90;;;;;;5012698;28;20314;-66
2021/11/27 05:00:20;;;;;;;7.87;6.10;;;2.80;99.90;;;;;;5015795;28;20720;-67
2021/11/27 05:02:47;;;;;;;10.87;6.83;;;2.80;99.90;;;;;;5012287;28;20222;-66
2021/11/27 05:05:14;;;;;;;8.43;6.20;;;2.80;99.90;;;;;;5026192;28;20799;-66
2021/11/27 05:07:41;;;;;;;9.57;7.00;;;2.80;99.90;;;;;;5013030;28;20214;-65
2021/11/27 05:10:09;;;;;;;10.23;6.40;;;2.80;99.90;;;;;;5022015;28;20207;-65
2021/11/27 05:12:36;;;;;;;9.07;6.63;;;2.80;99.90;;;;;;5031540;28;20242;-65
2021/11/27 05:15:06;;;;;;;10.70;6.60;;;2.80;99.90;;;;;;5031620;28;20242;-66
2021/11/27 05:17:33;;;;;;;6.53;5.53;;;2.80;99.90;;;;;;5012216;28;20313;-66
2021/11/27 05:20:00;;;;;;;8.10;6.20;;;2.80;99.90;;;;;;5012504;28;20215;-66
2021/11/27 05:22:27;;;;;;;10.50;6.47;;;2.70;99.90;;;;;;5025832;28;20290;-66
2021/11/27 05:24:54;;;;;;;10.17;6.40;;;2.80;99.90;;;;;;5016685;28;20219;-66
2021/11/27 05:27:22;;;;;;;8.40;5.77;;;2.80;99.90;;;;;;5028418;28;20302;-66
2021/11/27 05:29:50;;;;;;;9.03;6.20;;;2.70;99.90;;;;;;5030142;28;20622;-66
2021/11/27 05:32:25;;;;;;;8.87;6.70;;;2.70;99.90;;;;;;5030338;28;20668;-66
2021/11/27 05:34:52;;;;;;;10.93;6.73;;;2.70;99.90;;;;;;5019784;28;20226;-66
2021/11/27 05:37:20;;;;;;;8.90;6.07;;;2.70;99.90;;;;;;5017342;28;20314;-67
2021/11/27 05:39:47;;;;;;;9.77;6.70;;;2.70;99.90;;;;;;5023650;28;20707;-66
2021/11/27 05:42:16;;;;;;;11.30;7.40;;;2.70;99.90;;;;;;5031089;28;20297;-66
2021/11/27 05:44:44;;;;;;;11.70;6.57;;;2.70;99.90;;;;;;5017344;28;20226;-65
2021/11/27 05:47:11;;;;;;;9.23;6.37;;;2.70;99.90;;;;;;5020115;28;20293;-66
2021/11/27 05:49:39;;;;;;;9.03;6.27;;;2.70;99.90;;;;;;5020568;28;20217;-66
2021/11/27 05:52:07;;;;;;;9.70;6.40;;;2.70;99.90;;;;;;5024865;28;20743;-65
2021/11/27 05:54:34;;;;;;;13.63;6.77;;;2.70;99.90;;;;;;5013916;28;20295;-65
2021/11/27 05:57:01;;;;;;;10.57;6.70;;;2.70;99.90;;;;;;5024547;28;20306;-65
2021/11/27 05:59:28;;;;;;;11.10;6.97;;;2.70;99.90;;;;;;5028323;28;20301;-66
2021/11/27 06:01:55;;;;;;;10.07;6.93;;;2.70;99.90;;;;;;5017781;28;20209;-65
2021/11/27 06:04:23;;;;;;;10.87;6.70;;;2.70;99.90;;;;;;5022270;28;20250;-65
2021/11/27 06:06:51;;;;;;;9.00;6.27;;;2.70;99.90;;;;;;5017837;28;20223;-66
2021/11/27 06:09:18;;;;;;;9.10;6.10;;;2.70;99.90;;;;;;5026333;28;20253;-66
2021/11/27 06:11:45;;;;;;;11.93;6.90;;;2.80;99.90;;;;;;5025045;28;20704;-65
2021/11/27 06:14:13;;;;;;;11.30;6.43;;;2.70;99.90;;;;;;5019124;28;20259;-67
2021/11/27 06:16:40;;;;;;;10.70;6.90;;;2.70;99.90;;;;;;5023067;28;20206;-66
2021/11/27 06:19:07;;;;;;;11.30;7.27;;;2.70;99.90;;;;;;5018241;28;20290;-66
2021/11/27 06:21:34;;;;;;;9.50;6.40;;;2.60;99.90;;;;;;5021349;28;20293;-66
2021/11/27 06:24:03;;;;;;;8.73;6.60;;;2.60;99.90;;;;;;5016788;28;20214;-65
2021/11/27 06:26:30;;;;;;;9.37;6.80;;;2.60;99.90;;;;;;5021569;28;20645;-66
2021/11/27 06:28:57;;;;;;;10.17;7.40;;;2.60;99.90;;;;;;5023428;28;20316;-65
2021/11/27 06:31:23;;;;;;;9.40;6.40;;;2.70;99.90;;;;;;5018642;28;20569;-65
2021/11/27 06:33:50;;;;;;;9.33;6.40;;;2.70;99.90;;;;;;5016618;28;20290;-66
2021/11/27 06:36:17;;;;;;;10.53;6.93;;;2.70;99.90;;;;;;5010243;28;20651;-66
2021/11/27 06:38:44;;;;;;;8.47;6.40;;;2.70;99.90;;;;;;5011952;28;20222;-66
2021/11/27 06:41:12;;;;;;;10.43;6.73;;;2.70;99.90;;;;;;5030049;28;20238;-67
2021/11/27 06:43:39;;;;;;;10.30;6.97;;;2.70;99.90;;;;;;5016544;28;20278;-66
2021/11/27 06:46:06;;;;;;;10.00;7.13;;;2.70;99.90;;;;;;5010176;28;20251;-66
2021/11/27 06:48:33;;;;;;;10.17;7.47;;;2.60;99.90;;;;;;5019737;28;20203;-66
2021/11/27 06:51:00;;;;;;;10.80;6.40;;;2.70;99.90;;;;;;5029650;28;20301;-65
2021/11/27 06:53:27;;;;;;;9.23;6.67;;;2.60;99.90;;;;;;5015928;28;20207;-66
2021/11/27 06:55:55;;;;;;;10.27;7.20;;;2.60;99.90;;;;;;5030530;28;20593;-66
2021/11/27 06:58:23;;;;;;;11.60;7.53;;;2.70;99.90;;;;;;5017872;28;20683;-67
2021/11/27 07:00:50;;;;;;;11.83;8.17;;;2.60;99.90;;;;;;5017751;28;20303;-66
2021/11/27 07:03:17;;;;;;;10.47;8.00;;;2.50;99.90;;;;;;5030058;28;20591;-66
2021/11/27 07:05:44;;;;;;;11.97;8.50;;;2.50;99.90;;;;;;5025922;28;20310;-65
2021/11/27 07:08:11;;;;;;;12.20;8.23;;;2.40;99.90;;;;;;5011282;28;20290;-66
2021/11/27 07:10:38;;;;;;;13.27;8.47;;;2.40;99.90;;;;;;5012978;28;20230;-66
2021/11/27 07:13:05;;;;;;;13.03;9.17;;;2.40;99.90;;;;;;5016803;28;20709;-66
2021/11/27 07:15:33;;;;;;;12.63;8.90;;;2.50;99.90;;;;;;5014571;28;20317;-66
2021/11/27 07:18:00;;;;;;;11.93;8.27;;;2.40;99.90;;;;;;5023190;28;20655;-66
2021/11/27 07:20:28;;;;;;;13.80;9.57;;;2.30;99.90;;;;;;5031325;28;20241;-66
2021/11/27 07:22:55;;;;;;;14.37;9.67;;;2.40;99.90;;;;;;5014859;28;20210;-65
2021/11/27 07:25:22;;;;;;;14.33;9.50;;;2.40;99.90;;;;;;5027577;28;20408;-66
2021/11/27 07:27:49;;;;;;;14.50;9.70;;;2.40;99.90;;;;;;5017159;28;20211;-68
2021/11/27 07:30:16;;;;;;;15.93;10.13;;;2.40;99.90;;;;;;5015671;28;20235;-65
2021/11/27 07:32:44;;;;;;;15.57;10.30;;;2.40;99.90;;;;;;5023334;28;20283;-66
2021/11/27 07:35:11;;;;;;;17.77;10.87;;;2.40;99.90;;;;;;5022633;28;20647;-66
2021/11/27 07:37:38;;;;;;;16.63;11.13;;;2.40;99.90;;;;;;5027624;28;20633;-67
2021/11/27 07:40:06;;;;;;;17.50;11.67;;;2.50;99.90;;;;;;5033624;28;20297;-64
2021/11/27 07:42:33;;;;;;;18.10;11.40;;;2.50;99.90;;;;;;5014568;28;20261;-66
2021/11/27 07:45:00;;;;;;;18.20;11.60;;;2.50;99.90;;;;;;5013954;28;20319;-66
2021/11/27 07:47:27;;;;;;;19.87;12.17;;;2.50;99.90;;;;;;5021619;28;20658;-65
2021/11/27 07:49:55;;;;;;;19.40;11.80;;;2.50;99.90;;;;;;5024667;28;20297;-66
2021/11/27 07:52:22;;;;;;;18.90;11.60;;;2.50;99.90;;;;;;5022202;28;20246;-66
2021/11/27 07:54:50;;;;;;;21.90;13.07;;;2.50;99.90;;;;;;5027353;28;20238;-66
2021/11/27 07:57:17;;;;;;;21.97;13.60;;;2.40;99.90;;;;;;5018187;28;20220;-66
2021/11/27 07:59:43;;;;;;;21.23;13.17;;;2.40;99.90;;;;;;5014191;28;20253;-66
2021/11/27 08:02:10;;;;;;;21.27;13.90;;;2.40;99.90;;;;;;5014312;28;20290;-67
2021/11/27 08:04:37;;;;;;;22.97;13.33;;;2.40;99.90;;;;;;5014206;28;20786;-66
2021/11/27 08:07:05;;;;;;;21.73;13.37;;;2.40;99.90;;;;;;5015882;28;20307;-67
2021/11/27 08:09:32;;;;;;;26.57;14.83;;;2.40;99.90;;;;;;5013404;28;20630;-67
2021/11/27 08:11:59;;;;;;;24.73;14.20;;;2.40;99.90;;;;;;5020461;28;20273;-66
2021/11/27 08:14:31;;;;;;;22.33;14.60;;;2.50;99.90;;;;;;5018366;28;20420;-66
2021/11/27 08:16:59;;;;;;;24.67;14.20;;;2.60;99.90;;;;;;5018684;28;20314;-69
2021/11/27 08:19:26;;;;;;;24.03;15.00;;;2.60;99.90;;;;;;5025484;28;20207;-68
2021/11/27 08:21:53;;;;;;;24.17;14.30;;;2.60;99.90;;;;;;5014585;28;20280;-67
2021/11/27 08:24:22;;;;;;;24.47;14.87;;;2.70;99.90;;;;;;5019548;28;20313;-70
2021/11/27 08:26:48;;;;;;;25.17;14.67;;;2.70;99.90;;;;;;5021309;28;20314;-70
2021/11/27 08:29:15;;;;;;;23.03;14.53;;;2.70;99.90;;;;;;5015578;28;20294;-68
2021/11/27 08:31:42;;;;;;;22.60;14.73;;;2.70;99.90;;;;;;5015039;28;20278;-69
2021/11/27 08:34:09;;;;;;;23.20;14.57;;;2.80;99.90;;;;;;5026532;28;20691;-67
2021/11/27 08:36:36;;;;;;;23.37;14.40;;;4.10;99.90;;;;;;5021060;28;20202;-67
2021/11/27 08:39:03;;;;;;;22.67;13.73;;;2.80;99.90;;;;;;5014606;28;20258;-70
2021/11/27 08:41:32;;;;;;;25.87;15.40;;;2.80;99.90;;;;;;5020043;28;20298;-67
2021/11/27 08:43:58;;;;;;;25.40;16.00;;;2.80;99.90;;;;;;5016038;28;20221;-70
2021/11/27 08:46:25;;;;;;;25.43;16.00;;;2.80;99.90;;;;;;5025990;28;20219;-68
2021/11/27 08:48:52;;;;;;;30.10;17.23;;;2.80;99.90;;;;;;5027598;28;20211;-67
2021/11/27 08:51:19;;;;;;;27.03;16.57;;;2.80;99.90;;;;;;5021371;28;20290;-68
2021/11/27 08:53:46;;;;;;;32.70;18.83;;;2.80;99.90;;;;;;5013357;28;20686;-68
2021/11/27 08:56:13;;;;;;;28.80;16.70;;;2.80;99.90;;;;;;5024771;28;20309;-68
2021/11/27 08:58:42;;;;;;;30.00;17.90;;;2.80;99.90;;;;;;5018034;28;20238;-69
2021/11/27 09:01:12;;;;;;;32.40;17.90;;;2.80;99.90;;;;;;5031562;28;20211;-66
2021/11/27 09:03:39;;;;;;;32.10;19.10;;;2.80;99.90;;;;;;5028076;28;20626;-67
2021/11/27 09:06:07;;;;;;;30.83;16.90;;;2.90;99.90;;;;;;5028426;28;20310;-69
2021/11/27 09:08:39;;;;;;;31.20;18.57;;;2.90;99.90;;;;;;5016714;28;20238;-68
2021/11/27 09:11:08;;;;;;;34.30;18.70;;;2.90;99.90;;;;;;5015329;28;20302;-67
2021/11/27 09:13:35;;;;;;;33.60;19.73;;;2.90;99.90;;;;;;5016477;28;20281;-69
2021/11/27 09:16:04;;;;;;;34.53;18.60;;;2.90;99.90;;;;;;5026348;28;20198;-68
2021/11/27 09:18:33;;;;;;;33.93;18.40;;;2.80;99.90;;;;;;5017766;28;20723;-68
2021/11/27 09:21:00;;;;;;;34.60;18.90;;;2.80;99.90;;;;;;5012094;28;20294;-68
2021/11/27 09:23:27;;;;;;;29.93;17.40;;;2.80;99.90;;;;;;5014694;28;20582;-68
2021/11/27 09:25:54;;;;;;;37.83;19.57;;;2.80;99.90;;;;;;5014193;28;20270;-66
2021/11/27 09:28:21;;;;;;;33.33;17.80;;;2.80;99.90;;;;;;5011934;28;20298;-68
2021/11/27 09:30:48;;;;;;;33.17;18.97;;;2.80;99.90;;;;;;5012349;28;20243;-68
2021/11/27 09:33:16;;;;;;;34.60;18.40;;;2.80;99.90;;;;;;5011879;28;20215;-68
2021/11/27 09:35:54;;;;;;;30.87;17.33;;;2.80;99.90;;;;;;5011505;28;20294;-67
2021/11/27 09:38:21;;;;;;;31.00;18.27;;;2.80;99.90;;;;;;5015526;28;20921;-67
2021/11/27 09:40:52;;;;;;;32.97;17.70;;;2.80;99.90;;;;;;5024944;28;20720;-67
2021/11/27 09:43:20;;;;;;;37.47;18.43;;;2.80;99.90;;;;;;5011646;28;20211;-67
2021/11/27 09:45:48;;;;;;;34.27;18.20;;;2.80;99.90;;;;;;5016870;28;20233;-69
2021/11/27 09:48:18;;;;;;;33.67;19.10;;;2.80;99.90;;;;;;5016090;28;20207;-66
2021/11/27 09:50:46;;;;;;;29.87;17.53;;;2.80;99.90;;;;;;5012213;28;20570;-68
2021/11/27 09:53:13;;;;;;;33.50;18.50;;;2.80;99.90;;;;;;5017048;28;20265;-67
2021/11/27 09:55:41;;;;;;;33.67;18.00;;;2.80;99.90;;;;;;5013030;28;20283;-66
2021/11/27 09:58:08;;;;;;;31.63;17.63;;;2.80;99.90;;;;;;5028887;28;20246;-68
2021/11/27 10:00:34;;;;;;;37.77;18.60;;;2.80;99.90;;;;;;5012083;28;20286;-67
2021/11/27 10:03:02;;;;;;;39.80;19.83;;;2.80;99.90;;;;;;5024162;28;20207;-69
2021/11/27 10:05:31;;;;;;;33.97;17.27;;;2.80;99.90;;;;;;5013617;28;20346;-66
2021/11/27 10:07:58;;;;;;;34.30;18.07;;;2.80;99.90;;;;;;5014881;28;20752;-68
2021/11/27 10:10:25;;;;;;;34.03;18.67;;;2.80;99.90;;;;;;5022851;28;20487;-67
2021/11/27 10:12:52;;;;;;;38.77;19.10;;;2.70;99.90;;;;;;5014998;28;20303;-66
2021/11/27 10:15:20;;;;;;;37.57;20.43;;;2.80;99.90;;;;;;5013726;28;20251;-66
2021/11/27 10:17:47;;;;;;;34.17;19.43;;;2.80;99.90;;;;;;5013102;28;20266;-67
2021/11/27 10:20:18;;;;;;;36.17;18.23;;;2.70;99.90;;;;;;5026428;28;20564;-67
2021/11/27 10:22:51;;;;;;;34.53;17.73;;;2.80;99.90;;;;;;5020060;28;20566;-69
2021/11/27 10:25:35;;;;;;;34.57;19.23;;;2.80;99.90;;;;;;5017312;28;20199;-68
2021/11/27 10:28:09;;;;;;;32.13;17.47;;;2.80;99.90;;;;;;5021853;28;20240;-66
2021/11/27 10:30:42;;;;;;;32.67;17.07;;;2.80;99.90;;;;;;5022990;28;20280;-67
2021/11/27 10:33:09;;;;;;;34.27;17.93;;;2.80;99.90;;;;;;5021705;28;20260;-67
2021/11/27 10:35:36;;;;;;;33.70;17.23;;;2.80;99.90;;;;;;5018395;28;20230;-68
2021/11/27 10:38:07;;;;;;;33.90;17.13;;;2.80;99.90;;;;;;5024511;28;20234;-68
2021/11/27 10:40:35;;;;;;;30.00;16.40;;;2.80;99.90;;;;;;5016986;28;20202;-68
2021/11/27 10:43:08;;;;;;;30.60;16.37;;;2.90;99.90;;;;;;5010965;28;20712;-67
2021/11/27 10:45:37;;;;;;;28.60;15.63;;;2.80;99.90;;;;;;5025290;28;20681;-67
2021/11/27 10:48:12;;;;;;;26.73;15.37;;;2.80;99.90;;;;;;5014189;28;20715;-66
2021/11/27 10:50:40;;;;;;;29.97;15.03;;;2.90;99.90;;;;;;5012531;28;20257;-68
2021/11/27 10:53:12;;;;;;;28.33;15.20;;;2.90;99.90;;;;;;5017368;28;20322;-69
2021/11/27 10:55:40;;;;;;;26.63;14.77;;;2.90;99.90;;;;;;5018153;28;20648;-68
2021/11/27 10:58:09;;;;;;;27.77;14.87;;;2.90;99.90;;;;;;5013548;28;20207;-68
2021/11/27 11:00:40;;;;;;;28.77;15.13;;;2.90;99.90;;;;;;5016457;28;20260;-68
2021/11/27 11:03:23;;;;;;;30.57;15.60;;;2.90;99.90;;;;;;5010314;28;20620;-68
2021/11/27 11:05:50;;;;;;;30.50;15.37;;;2.90;99.90;;;;;;5016179;28;20203;-67
2021/11/27 11:08:31;;;;;;;27.67;15.17;;;2.90;99.90;;;;;;5023573;28;20282;-69
2021/11/27 11:10:58;;;;;;;31.57;15.53;;;2.90;99.90;;;;;;5015603;28;20214;-68
2021/11/27 11:13:31;;;;;;;30.37;16.40;;;2.90;99.90;;;;;;5015288;28;20556;-68
2021/11/27 11:15:58;;;;;;;29.60;16.05;;;2.90;99.90;;;;;;5012728;28;20454;-68
2021/11/27 11:18:26;;;;;;;35.00;20.27;;;2.90;99.90;;;;;;5022947;28;20441;-67
2021/11/27 11:20:54;;;;;;;32.40;15.37;;;2.90;99.90;;;;;;5022262;28;20279;-68
2021/11/27 11:23:24;;;;;;;27.73;16.37;;;2.90;99.90;;;;;;5009555;28;20247;-68
2021/11/27 11:26:13;;;;;;;35.97;22.05;;;2.90;99.90;;;;;;5009144;28;21149;-68
2021/11/27 11:28:42;;;;;;;32.60;16.77;;;2.90;99.90;;;;;;5009717;28;20203;-69
2021/11/27 11:31:12;;;;;;;26.90;15.53;;;2.90;99.90;;;;;;5012185;28;20302;-67
2021/11/27 11:33:41;;;;;;;28.17;15.27;;;3.00;99.90;;;;;;5010750;28;20246;-65
2021/11/27 11:36:10;;;;;;;27.37;15.30;;;2.90;99.90;;;;;;5018226;28;20691;-68
2021/11/27 11:38:41;;;;;;;28.20;15.27;;;2.90;99.90;;;;;;5015200;28;20632;-68
2021/11/27 11:41:08;;;;;;;29.90;16.23;;;3.00;99.90;;;;;;5016749;28;20676;-68
2021/11/27 11:43:35;;;;;;;25.77;14.40;;;3.00;99.90;;;;;;5012127;28;20294;-68
2021/11/27 11:46:02;;;;;;;29.07;15.00;;;3.00;99.90;;;;;;5015227;28;20466;-68
2021/11/27 11:48:30;;;;;;;24.97;14.13;;;3.10;99.90;;;;;;5010267;28;20210;-68
2021/11/27 11:51:02;;;;;;;30.27;15.00;;;3.20;99.90;;;;;;5015629;28;20591;-69
2021/11/27 11:53:41;;;;;;;25.40;13.90;;;3.10;99.90;;;;;;5013631;28;20218;-68
2021/11/27 11:56:10;;;;;;;26.00;14.43;;;3.10;99.90;;;;;;5025154;28;20641;-67
2021/11/27 11:58:40;;;;;;;23.67;13.13;;;3.10;99.90;;;;;;5027144;28;20214;-67
2021/11/27 12:01:16;;;;;;;22.17;13.00;;;3.20;99.90;;;;;;5014519;28;20211;-67
2021/11/27 12:03:44;;;;;;;21.67;12.50;;;3.20;99.90;;;;;;5013193;28;20238;-67
2021/11/27 12:06:13;;;;;;;24.37;13.50;;;3.30;99.90;;;;;;5013789;28;20259;-67
2021/11/27 12:08:59;;;;;;;25.53;12.90;;;3.20;99.90;;;;;;5014227;28;20243;-67
2021/11/27 12:11:43;;;;;;;22.30;12.27;;;3.20;99.90;;;;;;5016251;28;20207;-68
2021/11/27 12:14:55;;;;;;;20.07;11.87;;;3.30;99.90;;;;;;5015905;28;20280;-67
2021/11/27 12:17:23;;;;;;;21.03;11.57;;;3.30;99.90;;;;;;5013653;28;20291;-67
2021/11/27 12:19:52;;;;;;;21.47;12.00;;;3.30;99.90;;;;;;5013969;28;20294;-68
2021/11/27 12:22:38;;;;;;;20.17;11.20;;;3.30;99.90;;;;;;5014983;28;20238;-69
2021/11/27 12:25:14;;;;;;;18.03;10.90;;;3.40;99.90;;;;;;5020290;28;20242;-68
2021/11/27 12:28:14;;;;;;;18.00;11.67;;;3.30;99.90;;;;;;5014106;28;20269;-68
2021/11/27 12:31:06;;;;;;;20.67;11.23;;;3.30;99.90;;;;;;5030335;28;20199;-68
2021/11/27 12:33:56;;;;;;;19.73;12.20;;;3.30;99.90;;;;;;5027446;28;20203;-69
2021/11/27 12:36:47;;;;;;;18.80;11.07;;;3.30;99.90;;;;;;5020059;28;20243;-68
2021/11/27 12:39:30;;;;;;;16.17;10.03;;;3.30;99.90;;;;;;5019590;28;20246;-68
2021/11/27 12:42:19;;;;;;;17.67;10.90;;;3.30;99.90;;;;;;5017456;28;20294;-67
2021/11/27 12:44:49;;;;;;;19.07;10.80;;;3.30;99.90;;;;;;5018472;28;20214;-67
2021/11/27 12:47:33;;;;;;;18.93;10.97;;;3.40;99.90;;;;;;5022012;28;20214;-67
2021/11/27 12:50:04;;;;;;;16.90;10.33;;;3.30;99.90;;;;;;5019496;28;20664;-68
2021/11/27 12:52:37;;;;;;;17.27;10.47;;;3.30;99.90;;;;;;5023325;28;20266;-67
2021/11/27 12:55:44;;;;;;;18.10;10.90;;;3.30;99.90;;;;;;5023378;28;20325;-68